createdAt,value
2019-06-07T00:00:37.171Z,11.20
2019-06-07T00:02:45.114Z,11.13
2019-06-07T00:05:13.212Z,10.50
2019-06-07T00:07:39.362Z,10.70
2019-06-07T00:10:06.873Z,11.13
2019-06-07T00:12:33.894Z,11.93
2019-06-07T00:15:01.122Z,9.90
2019-06-07T00:17:27.309Z,11.30
2019-06-07T00:19:53.408Z,11.90
2019-06-07T00:22:31.863Z,10.50
2019-06-07T00:24:47.504Z,10.60
2019-06-07T00:27:15.154Z,10.47
2019-06-07T00:29:41.349Z,10.03
2019-06-07T00:32:07.405Z,9.73
2019-06-07T00:34:33.457Z,11.30
2019-06-07T00:36:59.706Z,11.60
2019-06-07T00:39:26.283Z,11.73
2019-06-07T00:41:52.569Z,11.93
2019-06-07T00:44:21.543Z,10.60
2019-06-07T00:46:47.520Z,11.73
2019-06-07T00:49:30.403Z,11.80
2019-06-07T00:51:50.409Z,11.50
2019-06-07T00:54:09.676Z,11.60
2019-06-07T00:56:35.718Z,11.20
2019-06-07T00:59:11.110Z,11.17
2019-06-07T01:01:31.073Z,12.23
2019-06-07T01:03:57.151Z,12.37
2019-06-07T01:06:24.980Z,10.97
2019-06-07T01:08:51.134Z,11.33
2019-06-07T01:11:20.575Z,11.10
2019-06-07T01:13:45.149Z,12.10
2019-06-07T01:16:13.842Z,11.47
2019-06-07T01:18:46.189Z,12.50
2019-06-07T01:21:10.056Z,12.10
2019-06-07T01:26:08.696Z,12.80
2019-06-07T01:28:34.705Z,12.33
2019-06-07T01:31:02.554Z,12.33
2019-06-07T01:33:49.325Z,12.63
2019-06-07T01:35:59.093Z,13.60
2019-06-07T01:38:26.915Z,11.97
2019-06-07T01:40:57.237Z,13.13
2019-06-07T01:43:27.026Z,12.60
2019-06-07T01:45:51.550Z,11.43
2019-06-07T01:48:21.100Z,11.90
2019-06-07T01:50:45.856Z,11.30
2019-06-07T01:53:11.923Z,11.67
2019-06-07T01:55:37.979Z,11.07
2019-06-07T01:58:04.024Z,9.87
2019-06-07T02:00:34.369Z,11.53
2019-06-07T02:03:00.711Z,11.53
2019-06-07T02:05:31.041Z,10.17
2019-06-07T02:07:54.658Z,11.10
2019-06-07T02:10:24.724Z,11.53
2019-06-07T02:12:48.958Z,10.87
2019-06-07T02:15:15.941Z,11.60
2019-06-07T02:17:44.797Z,10.87
2019-06-07T02:20:11.260Z,11.20
2019-06-07T02:22:37.290Z,10.97
2019-06-07T02:25:35.293Z,11.33
2019-06-07T02:27:33.775Z,11.20
2019-06-07T02:29:59.935Z,11.20
2019-06-07T02:32:29.793Z,13.93
2019-06-07T02:34:53.908Z,14.17
2019-06-07T02:37:21.482Z,11.97
2019-06-07T02:39:47.705Z,12.50
2019-06-07T02:42:13.785Z,12.07
2019-06-07T02:44:40.482Z,11.93
2019-06-07T02:47:08.151Z,14.20
2019-06-07T02:49:40.942Z,15.90
2019-06-07T02:52:03.577Z,13.57
2019-06-07T02:54:32.371Z,13.93
2019-06-07T02:56:59.158Z,14.37
2019-06-07T02:59:47.258Z,14.37
2019-06-07T03:01:54.778Z,14.00
2019-06-07T03:04:20.961Z,12.50
2019-06-07T03:06:49.137Z,14.97
2019-06-07T03:09:18.777Z,14.57
2019-06-07T03:11:46.019Z,15.17
2019-06-07T03:14:12.380Z,15.30
2019-06-07T03:16:40.797Z,16.37
2019-06-07T03:19:10.066Z,15.40
2019-06-07T03:21:37.222Z,15.13
2019-06-07T03:24:03.478Z,15.50
2019-06-07T03:26:31.231Z,17.10
2019-06-07T03:28:59.071Z,16.97
2019-06-07T03:31:27.505Z,18.27
2019-06-07T03:33:53.782Z,18.57
2019-06-07T03:36:25.788Z,17.00
2019-06-07T03:38:47.862Z,18.00
2019-06-07T03:41:13.901Z,15.63
2019-06-07T03:43:40.762Z,14.90
2019-06-07T03:46:07.195Z,16.83
2019-06-07T03:48:36.425Z,15.07
2019-06-07T03:51:04.884Z,15.33
2019-06-07T03:53:30.759Z,15.70
2019-06-07T03:55:58.553Z,16.37
2019-06-07T03:58:36.654Z,13.37
2019-06-07T04:00:54.379Z,14.03
2019-06-07T04:03:33.655Z,14.10
2019-06-07T04:05:54.312Z,14.17
2019-06-07T04:08:21.711Z,15.03
2019-06-07T04:10:59.214Z,13.97
2019-06-07T04:13:15.831Z,14.67
2019-06-07T04:15:42.008Z,14.50
2019-06-07T04:18:08.053Z,13.30
2019-06-07T04:20:36.636Z,14.53
2019-06-07T04:23:24.674Z,14.53
2019-06-07T04:25:37.159Z,15.10
2019-06-07T04:28:03.588Z,16.20
2019-06-07T04:30:45.009Z,15.10
2019-06-07T04:33:15.748Z,14.33
2019-06-07T04:35:45.197Z,16.60
2019-06-07T04:38:14.459Z,13.70
2019-06-07T04:40:42.803Z,13.10
2019-06-07T04:43:11.193Z,15.27
2019-06-07T04:45:46.248Z,15.57
2019-06-07T04:48:11.799Z,15.60
2019-06-07T04:50:41.043Z,13.93
2019-06-07T04:53:09.484Z,13.80
2019-06-07T04:55:41.305Z,14.17
2019-06-07T04:58:09.760Z,15.73
2019-06-07T05:00:59.309Z,13.03
2019-06-07T05:03:07.806Z,12.43
2019-06-07T05:05:40.867Z,13.50
2019-06-07T05:08:07.849Z,13.10
2019-06-07T05:10:38.101Z,12.43
2019-06-07T05:13:03.126Z,13.10
2019-06-07T05:15:32.011Z,14.20
2019-06-07T05:17:58.532Z,14.30
2019-06-07T05:20:24.565Z,14.47
2019-06-07T05:22:50.868Z,13.30
2019-06-07T05:25:17.117Z,16.47
2019-06-07T05:27:46.883Z,16.37
2019-06-07T05:30:50.960Z,16.23
2019-06-07T05:32:45.850Z,15.57
2019-06-07T05:35:12.980Z,17.10
2019-06-07T05:37:45.681Z,17.30
2019-06-07T05:40:10.004Z,17.40
2019-06-07T05:42:39.158Z,16.97
2019-06-07T05:45:05.688Z,17.20
2019-06-07T05:47:32.142Z,16.93
2019-06-07T05:49:58.530Z,17.67
2019-06-07T05:52:25.849Z,17.23
2019-06-07T05:54:53.367Z,17.10
2019-06-07T05:57:19.441Z,16.00
2019-06-07T05:59:47.686Z,15.50
2019-06-07T06:02:22.136Z,17.50
2019-06-07T06:04:45.815Z,17.83
2019-06-07T06:07:11.621Z,19.47
2019-06-07T06:09:40.559Z,16.57
2019-06-07T06:12:06.975Z,15.47
2019-06-07T06:14:35.208Z,19.00
2019-06-07T06:17:02.626Z,18.50
2019-06-07T06:19:28.889Z,18.67
2019-06-07T06:21:54.980Z,18.67
2019-06-07T06:24:22.039Z,17.97
2019-06-07T06:26:54.105Z,18.83
2019-06-07T06:29:16.189Z,18.10
2019-06-07T06:32:36.730Z,16.63
2019-06-07T06:34:12.576Z,16.43
2019-06-07T06:36:39.909Z,16.40
2019-06-07T06:39:09.848Z,16.53
2019-06-07T06:41:51.988Z,15.17
2019-06-07T06:44:05.533Z,15.87
2019-06-07T06:46:41.122Z,14.97
2019-06-07T06:49:03.738Z,13.13
2019-06-07T06:51:30.435Z,12.30
2019-06-07T06:53:57.534Z,12.13
2019-06-07T06:56:23.683Z,13.20
2019-06-07T06:59:32.537Z,11.90
2019-06-07T07:01:23.221Z,12.03
2019-06-07T07:04:08.455Z,14.33
2019-06-07T07:06:26.455Z,11.90
2019-06-07T07:08:51.410Z,12.63
2019-06-07T07:11:17.851Z,12.70
2019-06-07T07:13:45.291Z,13.20
2019-06-07T07:16:12.535Z,12.00
2019-06-07T07:18:41.687Z,14.40
2019-06-07T07:21:10.862Z,12.03
2019-06-07T07:24:01.558Z,12.90
2019-06-07T07:26:12.125Z,13.00
2019-06-07T07:28:42.818Z,13.67
2019-06-07T07:31:10.659Z,14.00
2019-06-07T07:34:27.404Z,13.17
2019-06-07T07:36:23.192Z,11.73
2019-06-07T07:38:40.298Z,13.47
2019-06-07T07:41:14.740Z,12.23
2019-06-07T07:43:32.181Z,12.37
2019-06-07T07:46:02.732Z,12.67
2019-06-07T07:48:26.153Z,12.23
2019-06-07T07:51:00.492Z,11.60
2019-06-07T07:53:23.673Z,11.60
2019-06-07T07:55:57.798Z,13.80
2019-06-07T07:58:25.947Z,12.10
2019-06-07T08:01:04.681Z,11.17
2019-06-07T08:03:19.966Z,11.27
2019-06-07T08:05:47.110Z,11.30
2019-06-07T08:08:14.155Z,11.57
2019-06-07T08:10:41.577Z,10.90
2019-06-07T08:15:35.705Z,10.00
2019-06-07T08:18:04.341Z,10.67
2019-06-07T08:20:30.304Z,10.00
2019-06-07T08:22:59.708Z,9.80
2019-06-07T08:25:25.885Z,10.53
2019-06-07T08:27:55.594Z,10.30
2019-06-07T08:30:49.861Z,12.37
2019-06-07T08:32:54.948Z,9.37
2019-06-07T08:36:03.119Z,10.00
2019-06-07T08:40:16.686Z,8.30
2019-06-07T08:43:04.552Z,9.10
2019-06-07T08:45:12.823Z,9.47
2019-06-07T08:47:38.897Z,8.60
2019-06-07T08:50:07.934Z,8.90
2019-06-07T08:52:34.213Z,8.67
2019-06-07T08:55:04.730Z,8.00
2019-06-07T08:57:28.216Z,8.17
2019-06-07T09:00:04.831Z,7.87
2019-06-07T09:02:27.560Z,9.10
2019-06-07T09:04:59.265Z,8.30
2019-06-07T09:07:24.211Z,8.07
2019-06-07T09:09:59.784Z,7.33
2019-06-07T09:12:20.532Z,8.00
2019-06-07T09:14:59.841Z,7.00
2019-06-07T09:17:16.015Z,7.80
2019-06-07T09:19:43.368Z,7.77
2019-06-07T09:22:11.290Z,7.50
2019-06-07T09:24:37.563Z,6.77
2019-06-07T09:27:07.505Z,6.60
2019-06-07T09:29:31.840Z,7.23
2019-06-07T09:32:02.619Z,6.33
2019-06-07T09:34:26.243Z,7.87
2019-06-07T09:36:53.733Z,7.47
2019-06-07T09:39:20.101Z,6.37
2019-06-07T09:41:50.150Z,6.90
2019-06-07T09:44:25.213Z,7.00
2019-06-07T09:46:42.495Z,6.80
2019-06-07T09:49:18.291Z,6.50
2019-06-07T09:51:36.421Z,6.33
2019-06-07T09:54:08.531Z,6.77
2019-06-07T09:56:32.773Z,7.10
2019-06-07T09:59:02.609Z,7.30
2019-06-07T10:01:26.808Z,8.03
2019-06-07T10:03:52.979Z,6.77
2019-06-07T10:06:19.630Z,7.43
2019-06-07T10:10:04.676Z,7.93
2019-06-07T10:11:13.978Z,6.50
2019-06-07T10:13:40.039Z,7.13
2019-06-07T10:16:07.082Z,6.73
2019-06-07T10:18:35.199Z,7.67
2019-06-07T10:21:01.459Z,7.43
2019-06-07T10:23:30.168Z,7.23
2019-06-07T10:25:56.248Z,7.20
2019-06-07T10:28:22.303Z,7.40
2019-06-07T10:30:48.409Z,7.63
2019-06-07T10:33:14.422Z,7.83
2019-06-07T10:35:42.411Z,8.33
2019-06-07T10:38:10.706Z,12.73
2019-06-07T10:40:36.920Z,12.43
2019-06-07T10:43:03.424Z,8.43
2019-06-07T10:45:31.404Z,8.00
2019-06-07T10:47:59.043Z,7.93
2019-06-07T10:50:27.841Z,7.20
2019-06-07T10:52:53.844Z,7.33
2019-06-07T10:55:19.957Z,8.17
2019-06-07T10:57:47.201Z,7.00
2019-06-07T11:00:14.065Z,7.40
2019-06-07T11:02:40.542Z,7.10
2019-06-07T11:05:08.230Z,6.83
2019-06-07T11:07:35.958Z,7.50
2019-06-07T11:10:14.991Z,6.83
2019-06-07T11:12:35.687Z,6.63
2019-06-07T11:15:04.575Z,6.03
2019-06-07T11:17:32.424Z,6.73
2019-06-07T11:19:58.604Z,7.03
2019-06-07T11:22:27.754Z,6.00
2019-06-07T11:24:53.960Z,7.00
2019-06-07T11:27:20.082Z,7.33
2019-06-07T11:29:46.218Z,7.60
2019-06-07T11:32:12.625Z,7.27
2019-06-07T11:34:38.797Z,5.93
2019-06-07T11:37:09.350Z,7.50
2019-06-07T11:39:36.406Z,7.10
2019-06-07T11:42:03.530Z,6.63
2019-06-07T11:44:29.611Z,7.27
2019-06-07T11:46:55.658Z,7.40
2019-06-07T11:49:22.117Z,7.43
2019-06-07T11:51:48.751Z,7.63
2019-06-07T11:54:16.305Z,7.07
2019-06-07T11:56:44.854Z,6.77
2019-06-07T11:59:11.181Z,6.87
2019-06-07T12:01:38.677Z,7.17
2019-06-07T12:04:11.558Z,6.80
2019-06-07T12:06:37.902Z,7.40
2019-06-07T12:09:08.557Z,7.27
2019-06-07T12:11:34.861Z,6.80
2019-06-07T12:14:00.870Z,5.93
2019-06-07T12:16:26.896Z,6.50
2019-06-07T12:18:54.134Z,7.70
2019-06-07T12:21:20.118Z,7.10
2019-06-07T12:23:46.155Z,6.53
2019-06-07T12:26:14.546Z,6.90
2019-06-07T12:28:42.799Z,6.70
2019-06-07T12:31:08.904Z,7.57
2019-06-07T12:33:35.085Z,6.80
2019-06-07T12:36:01.143Z,6.87
2019-06-07T12:38:28.565Z,7.03
2019-06-07T12:40:57.914Z,7.10
2019-06-07T12:43:23.611Z,7.63
2019-06-07T12:45:49.719Z,7.47
2019-06-07T12:48:19.288Z,7.50
2019-06-07T12:50:44.081Z,7.90
2019-06-07T12:53:10.241Z,7.57
2019-06-07T12:55:36.529Z,7.40
2019-06-07T12:58:05.374Z,10.50
2019-06-07T13:00:31.520Z,11.23
2019-06-07T13:02:58.417Z,15.80
2019-06-07T13:05:24.686Z,8.50
2019-06-07T13:07:51.206Z,7.70
2019-06-07T13:10:18.009Z,7.30
2019-06-07T13:12:44.260Z,7.30
2019-06-07T13:15:10.768Z,7.53
2019-06-07T13:17:37.305Z,7.17
2019-06-07T13:20:08.991Z,7.30
2019-06-07T13:22:37.359Z,7.20
2019-06-07T13:25:07.706Z,7.10
2019-06-07T13:27:34.082Z,7.97
2019-06-07T13:30:09.767Z,7.10
2019-06-07T13:32:31.176Z,7.00
2019-06-07T13:34:58.607Z,7.67
2019-06-07T13:37:25.488Z,6.80
2019-06-07T13:39:51.677Z,7.47
2019-06-07T13:42:18.425Z,7.40
2019-06-07T13:44:44.781Z,8.20
2019-06-07T13:47:10.862Z,7.13
2019-06-07T13:49:38.255Z,7.20
2019-06-07T13:52:04.265Z,7.73
2019-06-07T13:54:30.288Z,7.77
2019-06-07T13:57:02.425Z,7.53
2019-06-07T13:59:24.605Z,8.67
2019-06-07T14:01:50.678Z,9.03
2019-06-07T14:04:17.067Z,7.80
2019-06-07T14:06:43.070Z,7.20
2019-06-07T14:09:09.157Z,8.33
2019-06-07T14:11:50.098Z,7.73
2019-06-07T14:14:03.487Z,7.40
2019-06-07T14:16:30.451Z,7.40
2019-06-07T14:18:58.480Z,7.27
2019-06-07T14:21:24.829Z,6.90
2019-06-07T14:23:51.139Z,7.20
2019-06-07T14:26:17.562Z,7.57
2019-06-07T14:28:43.915Z,7.90
2019-06-07T14:31:09.982Z,6.93
2019-06-07T14:33:36.290Z,7.70
2019-06-07T14:36:02.450Z,7.10
2019-06-07T14:38:33.802Z,7.80
2019-06-07T14:40:57.590Z,7.57
2019-06-07T14:43:23.697Z,8.27
2019-06-07T14:45:51.644Z,8.23
2019-06-07T14:48:17.967Z,7.83
2019-06-07T14:50:43.999Z,6.77
2019-06-07T14:53:10.022Z,7.33
2019-06-07T14:55:36.272Z,7.17
2019-06-07T14:58:02.406Z,7.80
2019-06-07T15:00:41.225Z,7.17
2019-06-07T15:03:08.461Z,7.27
2019-06-07T15:05:35.672Z,6.50
2019-06-07T15:08:01.742Z,7.20
2019-06-07T15:10:31.971Z,12.93
2019-06-07T15:12:59.307Z,10.83
2019-06-07T15:15:26.406Z,7.70
2019-06-07T15:17:52.738Z,7.30
2019-06-07T15:20:19.904Z,7.00
2019-06-07T15:22:45.957Z,7.67
2019-06-07T15:25:12.541Z,7.60
2019-06-07T15:27:38.752Z,7.17
2019-06-07T15:30:10.242Z,8.23
2019-06-07T15:32:37.171Z,13.27
2019-06-07T15:35:06.545Z,9.20
2019-06-07T15:37:32.649Z,7.17
2019-06-07T15:40:03.451Z,6.93
2019-06-07T15:42:43.874Z,7.60
2019-06-07T15:45:00.384Z,7.40
2019-06-07T15:47:26.440Z,7.13
2019-06-07T15:49:52.493Z,7.23
2019-06-07T15:52:20.009Z,7.40
2019-06-07T15:54:48.773Z,7.40
2019-06-07T15:57:16.445Z,8.80
2019-06-07T15:59:43.915Z,8.57
2019-06-07T16:02:11.998Z,8.57
2019-06-07T16:04:39.901Z,8.20
2019-06-07T16:07:06.393Z,7.20
2019-06-07T16:09:34.335Z,9.87
2019-06-07T16:12:00.517Z,8.70
2019-06-07T16:14:26.544Z,10.70
2019-06-07T16:16:52.927Z,9.10
2019-06-07T16:19:19.065Z,8.30
2019-06-07T16:21:45.139Z,9.60
2019-06-07T16:24:12.483Z,7.73
2019-06-07T16:26:42.327Z,7.57
2019-06-07T16:29:10.004Z,7.57
2019-06-07T16:31:36.614Z,7.63
2019-06-07T16:34:03.194Z,8.00
2019-06-07T16:36:29.365Z,8.13
2019-06-07T16:38:55.645Z,6.63
2019-06-07T16:41:22.804Z,7.43
2019-06-07T16:43:50.255Z,6.80
2019-06-07T16:46:16.305Z,6.50
2019-06-07T16:48:45.078Z,8.90
2019-06-07T16:51:13.632Z,7.20
2019-06-07T16:53:40.374Z,6.47
2019-06-07T16:56:07.008Z,8.50
2019-06-07T16:58:35.244Z,7.30
2019-06-07T17:01:02.893Z,6.80
2019-06-07T17:03:28.991Z,7.27
2019-06-07T17:05:55.017Z,13.03
2019-06-07T17:08:21.039Z,13.23
2019-06-07T17:10:47.076Z,10.70
2019-06-07T17:13:30.021Z,10.40
2019-06-07T17:15:44.925Z,10.93
2019-06-07T17:18:11.094Z,10.00
2019-06-07T17:20:37.201Z,6.90
2019-06-07T17:23:03.746Z,6.90
2019-06-07T17:25:29.769Z,7.40
2019-06-07T17:27:58.792Z,8.13
2019-06-07T17:30:24.982Z,7.80
2019-06-07T17:32:58.960Z,7.80
2019-06-07T17:35:19.383Z,8.23
2019-06-07T17:37:46.338Z,8.23
2019-06-07T17:40:14.155Z,5.70
2019-06-07T17:42:44.797Z,5.27
2019-06-07T17:45:11.560Z,5.07
2019-06-07T17:47:37.711Z,4.70
2019-06-07T17:50:06.025Z,3.67
2019-06-07T17:52:32.408Z,3.33
2019-06-07T17:54:58.467Z,3.17
2019-06-07T17:57:24.571Z,3.17
2019-06-07T17:59:52.785Z,2.40
2019-06-07T18:02:20.941Z,3.30
2019-06-07T18:04:47.317Z,3.20
2019-06-07T18:07:14.808Z,2.67
2019-06-07T18:09:43.295Z,3.33
2019-06-07T18:12:09.517Z,3.20
2019-06-07T18:14:35.876Z,2.80
2019-06-07T18:17:02.124Z,2.57
2019-06-07T18:19:28.139Z,2.70
2019-06-07T18:21:58.590Z,2.30
2019-06-07T18:24:23.492Z,2.70
2019-06-07T18:26:50.510Z,2.60
2019-06-07T18:29:16.642Z,2.27
2019-06-07T18:31:42.644Z,2.33
2019-06-07T18:34:08.676Z,2.40
2019-06-07T18:36:36.044Z,2.37
2019-06-07T18:39:04.461Z,2.10
2019-06-07T18:41:31.140Z,2.07
2019-06-07T18:43:57.302Z,2.37
2019-06-07T18:46:24.566Z,1.90
2019-06-07T18:48:50.666Z,1.90
2019-06-07T18:51:16.743Z,2.37
2019-06-07T18:53:43.880Z,2.67
2019-06-07T18:56:09.932Z,2.20
2019-06-07T18:58:36.046Z,3.33
2019-06-07T19:01:02.079Z,2.70
2019-06-07T19:03:28.178Z,2.57
2019-06-07T19:05:54.371Z,2.30
2019-06-07T19:08:21.080Z,2.30
2019-06-07T19:10:48.554Z,2.33
2019-06-07T19:13:14.769Z,2.10
2019-06-07T19:15:43.401Z,2.23
2019-06-07T19:18:09.794Z,2.30
2019-06-07T19:20:39.791Z,2.07
2019-06-07T19:23:05.791Z,2.40
2019-06-07T19:25:31.911Z,2.90
2019-06-07T19:27:59.253Z,2.20
2019-06-07T19:30:25.450Z,2.30
2019-06-07T19:32:51.953Z,2.57
2019-06-07T19:35:20.164Z,2.50
2019-06-07T19:37:47.461Z,2.90
2019-06-07T19:40:13.887Z,1.80
2019-06-07T19:42:42.147Z,2.00
2019-06-07T19:45:28.929Z,2.03
2019-06-07T19:47:37.951Z,2.50
2019-06-07T19:50:05.267Z,1.93
2019-06-07T19:52:31.626Z,2.20
2019-06-07T19:54:57.780Z,7.43
2019-06-07T19:57:23.967Z,18.23
2019-06-07T19:59:50.161Z,9.60
2019-06-07T20:02:16.184Z,14.63
2019-06-07T20:04:42.245Z,28.83
2019-06-07T20:07:11.487Z,9.53
2019-06-07T20:09:37.509Z,3.90
2019-06-07T20:12:04.779Z,8.70
2019-06-07T20:14:33.144Z,5.67
2019-06-07T20:16:59.540Z,2.97
2019-06-07T20:19:25.783Z,5.10
2019-06-07T20:21:51.805Z,4.27
2019-06-07T20:24:27.164Z,2.80
2019-06-07T20:26:45.920Z,2.73
2019-06-07T20:29:25.318Z,3.70
2019-06-07T20:31:39.898Z,4.10
2019-06-07T20:34:07.033Z,3.57
2019-06-07T20:36:34.359Z,3.37
2019-06-07T20:39:00.465Z,2.70
2019-06-07T20:41:26.603Z,3.60
2019-06-07T20:43:52.717Z,2.87
2019-06-07T20:46:21.726Z,2.87
2019-06-07T20:48:47.696Z,2.57
2019-06-07T20:51:14.816Z,3.53
2019-06-07T20:53:41.569Z,3.37
2019-06-07T20:56:09.000Z,3.30
2019-06-07T20:58:39.182Z,2.80
2019-06-07T21:01:06.827Z,2.30
2019-06-07T21:03:33.285Z,2.50
2019-06-07T21:06:01.388Z,2.23
2019-06-07T21:08:29.023Z,2.80
2019-06-07T21:10:55.144Z,2.83
2019-06-07T21:13:21.242Z,2.23
2019-06-07T21:15:49.174Z,2.40
2019-06-07T21:18:19.525Z,3.10
2019-06-07T21:20:43.448Z,2.33
2019-06-07T21:23:09.514Z,2.30
2019-06-07T21:25:35.597Z,2.40
2019-06-07T21:28:05.175Z,2.40
2019-06-07T21:30:31.572Z,2.53
2019-06-07T21:32:59.475Z,2.17
2019-06-07T21:35:25.610Z,2.37
2019-06-07T21:37:51.681Z,2.80
2019-06-07T21:40:17.891Z,2.20
2019-06-07T21:42:44.202Z,2.70
2019-06-07T21:45:15.811Z,2.73
2019-06-07T21:47:41.864Z,3.27
2019-06-07T21:50:08.789Z,2.80
2019-06-07T21:52:38.699Z,2.27
2019-06-07T21:55:05.248Z,2.20
2019-06-07T21:57:32.377Z,2.53
2019-06-07T22:00:00.704Z,3.00
2019-06-07T22:02:27.046Z,3.00
2019-06-07T22:04:53.226Z,2.10
2019-06-07T22:07:19.449Z,2.40
2019-06-07T22:09:45.508Z,2.73
2019-06-07T22:12:12.122Z,3.03
2019-06-07T22:14:38.228Z,2.37
2019-06-07T22:17:04.258Z,3.07
2019-06-07T22:19:30.303Z,5.87
2019-06-07T22:22:02.466Z,3.93
2019-06-07T22:24:24.245Z,3.73
2019-06-07T22:26:53.453Z,2.90
2019-06-07T22:29:21.356Z,2.80
2019-06-07T22:31:47.568Z,2.60
2019-06-07T22:34:15.016Z,4.17
2019-06-07T22:36:44.401Z,3.27
2019-06-07T22:39:11.682Z,4.03
2019-06-07T22:41:39.155Z,2.73
2019-06-07T22:44:05.182Z,2.10
2019-06-07T22:46:37.766Z,2.80
2019-06-07T22:49:05.357Z,3.20
2019-06-07T22:51:31.399Z,2.40
2019-06-07T22:53:59.530Z,2.33
2019-06-07T22:56:28.561Z,2.50
2019-06-07T22:58:55.613Z,2.17
2019-06-07T23:01:22.261Z,2.50
2019-06-07T23:03:48.408Z,2.53
2019-06-07T23:06:14.747Z,2.67
2019-06-07T23:08:42.084Z,2.37
2019-06-07T23:11:09.012Z,2.73
2019-06-07T23:13:36.467Z,2.30
2019-06-07T23:16:03.413Z,2.37
2019-06-07T23:18:29.721Z,2.77
2019-06-07T23:20:55.780Z,2.20
2019-06-07T23:23:21.851Z,2.20
2019-06-07T23:25:47.864Z,2.30
2019-06-07T23:28:14.367Z,2.80
2019-06-07T23:30:40.420Z,2.13
2019-06-07T23:33:06.454Z,2.07
2019-06-07T23:35:32.468Z,2.27
2019-06-07T23:37:58.706Z,2.10
2019-06-07T23:40:24.785Z,2.63
2019-06-07T23:42:51.523Z,2.03
2019-06-07T23:45:17.603Z,2.30
2019-06-07T23:47:43.776Z,2.37
2019-06-07T23:50:13.545Z,2.73
2019-06-07T23:52:41.940Z,2.10
2019-06-07T23:55:08.514Z,3.03
2019-06-07T23:57:34.540Z,2.00
